createdAt,value
2018-02-05T00:00:37.662Z,14.60
2018-02-05T00:03:08.216Z,13.20
2018-02-05T00:05:39.358Z,15.60
2018-02-05T00:08:09.831Z,13.83
2018-02-05T00:10:40.315Z,15.33
2018-02-05T00:13:10.372Z,13.73
2018-02-05T00:15:40.832Z,14.63
2018-02-05T00:18:10.988Z,15.87
2018-02-05T00:20:41.140Z,15.27
2018-02-05T00:23:11.341Z,14.00
2018-02-05T00:25:41.823Z,14.23
2018-02-05T00:28:12.232Z,14.30
2018-02-05T00:30:42.746Z,14.13
2018-02-05T00:33:13.483Z,14.03
2018-02-05T00:35:43.774Z,13.67
2018-02-05T00:38:14.270Z,15.27
2018-02-05T00:40:44.293Z,12.40
2018-02-05T00:43:15.326Z,14.83
2018-02-05T00:45:45.602Z,15.87
2018-02-05T00:48:16.194Z,15.07
2018-02-05T00:50:46.908Z,15.63
2018-02-05T00:53:17.243Z,13.73
2018-02-05T00:55:47.484Z,14.97
2018-02-05T00:58:17.252Z,16.30
2018-02-05T01:00:47.428Z,16.60
2018-02-05T01:03:17.722Z,16.33
2018-02-05T01:05:48.184Z,15.83
2018-02-05T01:08:18.546Z,15.23
2018-02-05T01:10:48.784Z,16.40
2018-02-05T01:13:18.582Z,16.63
2018-02-05T01:15:49.600Z,17.83
2018-02-05T01:18:20.076Z,17.47
2018-02-05T01:20:50.523Z,17.13
2018-02-05T01:23:20.821Z,18.37
2018-02-05T01:25:51.048Z,17.50
2018-02-05T01:28:21.487Z,16.37
2018-02-05T01:30:51.719Z,17.77
2018-02-05T01:33:22.447Z,17.50
2018-02-05T01:35:53.008Z,17.80
2018-02-05T01:38:23.702Z,15.60
2018-02-05T01:40:54.172Z,16.43
2018-02-05T01:43:24.887Z,15.83
2018-02-05T01:45:54.791Z,14.97
2018-02-05T01:48:25.029Z,16.87
2018-02-05T01:50:55.467Z,16.70
2018-02-05T01:53:25.779Z,16.43
2018-02-05T01:55:55.918Z,16.13
2018-02-05T01:58:26.177Z,15.40
2018-02-05T02:00:56.702Z,15.17
2018-02-05T02:03:27.122Z,16.37
2018-02-05T02:05:57.731Z,16.07
2018-02-05T02:08:28.093Z,16.50
2018-02-05T02:10:58.635Z,14.40
2018-02-05T02:13:28.391Z,15.43
2018-02-05T02:15:58.226Z,14.50
2018-02-05T02:18:28.572Z,14.47
2018-02-05T02:20:58.824Z,16.10
2018-02-05T02:23:29.095Z,15.83
2018-02-05T02:25:59.625Z,16.17
2018-02-05T02:28:29.461Z,16.17
2018-02-05T02:31:00.084Z,17.97
2018-02-05T02:33:30.200Z,17.77
2018-02-05T02:36:00.675Z,16.70
2018-02-05T02:38:31.116Z,17.00
2018-02-05T02:41:00.948Z,15.70
2018-02-05T02:43:30.720Z,14.67
2018-02-05T02:46:01.113Z,15.20
2018-02-05T02:48:31.895Z,14.83
2018-02-05T02:51:02.104Z,13.90
2018-02-05T02:53:32.719Z,13.57
2018-02-05T02:56:02.721Z,13.83
2018-02-05T02:58:32.447Z,14.63
2018-02-05T03:01:02.508Z,14.07
2018-02-05T03:03:32.773Z,14.67
2018-02-05T03:06:03.434Z,13.60
2018-02-05T03:08:33.980Z,13.43
2018-02-05T03:11:04.787Z,14.00
2018-02-05T03:13:35.081Z,12.83
2018-02-05T03:16:05.740Z,13.80
2018-02-05T03:18:35.992Z,13.23
2018-02-05T03:21:06.509Z,13.50
2018-02-05T03:23:36.491Z,13.73
2018-02-05T03:26:06.925Z,12.30
2018-02-05T03:28:37.329Z,10.20
2018-02-05T03:31:07.177Z,14.20
2018-02-05T03:33:37.911Z,11.20
2018-02-05T03:36:08.252Z,13.03
2018-02-05T03:38:38.083Z,11.23
2018-02-05T03:41:08.447Z,10.77
2018-02-05T03:43:38.355Z,12.27
2018-02-05T03:46:08.744Z,13.43
2018-02-05T03:48:39.424Z,9.80
2018-02-05T03:51:10.019Z,14.00
2018-02-05T03:53:40.288Z,12.70
2018-02-05T03:56:10.769Z,13.60
2018-02-05T03:58:41.252Z,13.70
2018-02-05T04:01:11.340Z,15.60
2018-02-05T04:03:41.437Z,12.20
2018-02-05T04:06:11.750Z,13.53
2018-02-05T04:08:42.338Z,11.60
2018-02-05T04:11:12.638Z,14.60
2018-02-05T04:13:43.078Z,13.30
2018-02-05T04:16:13.433Z,14.50
2018-02-05T04:18:43.765Z,13.87
2018-02-05T04:21:14.184Z,14.97
2018-02-05T04:23:44.444Z,13.40
2018-02-05T04:26:14.647Z,13.97
2018-02-05T04:28:45.479Z,15.17
2018-02-05T04:31:15.824Z,14.20
2018-02-05T04:33:46.272Z,15.13
2018-02-05T04:36:16.234Z,14.27
2018-02-05T04:38:46.893Z,14.83
2018-02-05T04:41:16.625Z,15.97
2018-02-05T04:43:47.194Z,15.77
2018-02-05T04:46:17.694Z,15.13
2018-02-05T04:48:47.463Z,15.70
2018-02-05T04:51:17.179Z,15.67
2018-02-05T04:53:47.189Z,14.43
2018-02-05T04:56:16.967Z,15.13
2018-02-05T04:58:46.765Z,14.53
2018-02-05T05:01:16.547Z,15.60
2018-02-05T05:03:46.346Z,15.17
2018-02-05T05:06:16.201Z,16.33
2018-02-05T05:08:45.920Z,15.27
2018-02-05T05:11:15.693Z,16.43
2018-02-05T05:13:45.465Z,17.57
2018-02-05T05:16:15.328Z,17.10
2018-02-05T05:18:45.097Z,17.87
2018-02-05T05:21:14.878Z,18.43
2018-02-05T05:23:44.666Z,22.33
2018-02-05T05:26:14.414Z,25.63
2018-02-05T05:28:44.122Z,25.47
2018-02-05T05:31:13.827Z,22.77
2018-02-05T05:33:43.652Z,20.87
2018-02-05T05:36:13.416Z,19.80
2018-02-05T05:38:43.149Z,17.80
2018-02-05T05:41:13.023Z,16.33
2018-02-05T05:43:42.820Z,18.83
2018-02-05T05:46:12.623Z,18.67
2018-02-05T05:48:42.404Z,20.10
2018-02-05T05:51:12.205Z,20.37
2018-02-05T05:53:41.984Z,19.40
2018-02-05T05:56:11.775Z,18.87
2018-02-05T05:58:41.511Z,19.67
2018-02-05T06:01:11.253Z,19.10
2018-02-05T06:03:40.991Z,18.07
2018-02-05T06:06:10.786Z,19.80
2018-02-05T06:08:40.546Z,18.20
2018-02-05T06:11:10.262Z,18.03
2018-02-05T06:13:40.039Z,19.50
2018-02-05T06:16:09.810Z,18.97
2018-02-05T06:18:39.613Z,19.33
2018-02-05T06:21:09.423Z,18.40
2018-02-05T06:23:39.194Z,18.03
2018-02-05T06:26:08.982Z,20.30
2018-02-05T06:28:38.712Z,20.87
2018-02-05T06:31:08.421Z,21.77
2018-02-05T06:33:38.190Z,20.10
2018-02-05T06:36:07.983Z,20.30
2018-02-05T06:38:37.734Z,21.73
2018-02-05T06:41:07.598Z,20.60
2018-02-05T06:43:37.334Z,20.47
2018-02-05T06:46:07.087Z,20.37
2018-02-05T06:48:36.902Z,17.93
2018-02-05T06:51:18.480Z,18.90
2018-02-05T06:53:59.866Z,20.27
2018-02-05T06:56:29.636Z,19.93
2018-02-05T06:58:59.344Z,19.33
2018-02-05T07:01:29.120Z,20.47
2018-02-05T07:03:58.937Z,20.17
2018-02-05T07:06:28.694Z,21.93
2018-02-05T07:08:58.663Z,19.87
2018-02-05T07:11:28.362Z,20.47
2018-02-05T07:13:58.182Z,22.33
2018-02-05T07:16:27.942Z,20.37
2018-02-05T07:18:57.684Z,21.37
2018-02-05T07:21:27.422Z,20.97
2018-02-05T07:23:57.179Z,19.70
2018-02-05T07:26:26.928Z,20.13
2018-02-05T07:28:56.644Z,20.10
2018-02-05T07:31:26.405Z,18.83
2018-02-05T07:33:56.236Z,18.20
2018-02-05T07:36:25.989Z,19.00
2018-02-05T07:38:55.751Z,17.50
2018-02-05T07:41:25.551Z,20.10
2018-02-05T07:43:55.401Z,20.93
2018-02-05T07:46:25.167Z,21.53
2018-02-05T07:48:54.892Z,19.93
2018-02-05T07:51:24.622Z,20.23
2018-02-05T07:53:54.407Z,22.40
2018-02-05T07:56:24.220Z,19.37
2018-02-05T07:58:54.039Z,19.23
2018-02-05T08:01:23.797Z,20.43
2018-02-05T08:03:53.675Z,19.83
2018-02-05T08:06:23.471Z,21.50
2018-02-05T08:08:53.188Z,21.07
2018-02-05T08:11:22.888Z,20.60
2018-02-05T08:13:52.667Z,20.03
2018-02-05T08:16:22.484Z,19.57
2018-02-05T08:18:52.248Z,19.77
2018-02-05T08:21:22.036Z,18.27
2018-02-05T08:23:51.845Z,17.03
2018-02-05T08:26:21.634Z,17.10
2018-02-05T08:28:51.382Z,18.43
2018-02-05T08:31:21.064Z,19.80
2018-02-05T08:33:51.861Z,17.70
2018-02-05T08:36:21.658Z,17.90
2018-02-05T08:38:51.529Z,18.67
2018-02-05T08:41:21.314Z,18.30
2018-02-05T08:43:51.104Z,18.23
2018-02-05T08:46:20.893Z,16.20
2018-02-05T08:48:50.617Z,17.47
2018-02-05T08:51:20.326Z,18.17
2018-02-05T08:53:50.102Z,17.57
2018-02-05T08:56:19.903Z,18.27
2018-02-05T08:58:49.638Z,17.43
2018-02-05T09:01:19.377Z,17.90
2018-02-05T09:03:49.163Z,18.67
2018-02-05T09:06:18.966Z,17.60
2018-02-05T09:08:48.700Z,18.33
2018-02-05T09:11:18.426Z,17.27
2018-02-05T09:13:48.309Z,18.47
2018-02-05T09:16:18.025Z,18.57
2018-02-05T09:18:47.837Z,17.93
2018-02-05T09:21:17.610Z,17.80
2018-02-05T09:23:47.439Z,17.10
2018-02-05T09:26:17.271Z,17.60
2018-02-05T09:28:46.998Z,17.57
2018-02-05T09:31:16.752Z,19.20
2018-02-05T09:33:48.344Z,17.60
2018-02-05T09:36:18.174Z,18.37
2018-02-05T09:38:48.078Z,19.17
2018-02-05T09:41:18.007Z,18.83
2018-02-05T09:43:47.888Z,19.97
2018-02-05T09:46:17.708Z,18.53
2018-02-05T09:48:47.435Z,17.43
2018-02-05T09:51:17.134Z,17.43
2018-02-05T09:53:46.921Z,17.70
2018-02-05T09:56:16.734Z,18.50
2018-02-05T09:58:46.501Z,17.83
2018-02-05T10:01:16.316Z,18.47
2018-02-05T10:03:46.087Z,18.50
2018-02-05T10:06:15.895Z,18.43
2018-02-05T10:08:45.622Z,19.83
2018-02-05T10:11:15.376Z,18.63
2018-02-05T10:13:45.143Z,19.63
2018-02-05T10:16:14.906Z,19.13
2018-02-05T10:18:44.703Z,19.13
2018-02-05T10:21:14.480Z,17.90
2018-02-05T10:23:44.304Z,18.27
2018-02-05T10:26:14.109Z,20.43
2018-02-05T10:28:43.834Z,18.60
2018-02-05T10:31:13.689Z,19.60
2018-02-05T10:33:43.496Z,19.13
2018-02-05T10:36:13.302Z,19.73
2018-02-05T10:38:43.097Z,19.83
2018-02-05T10:41:12.941Z,19.30
2018-02-05T10:43:42.770Z,19.93
2018-02-05T10:46:12.621Z,18.93
2018-02-05T10:48:42.454Z,18.87
2018-02-05T10:51:12.209Z,18.73
2018-02-05T10:53:41.985Z,19.37
2018-02-05T10:56:11.826Z,19.80
2018-02-05T10:58:41.540Z,19.60
2018-02-05T11:01:11.357Z,17.73
2018-02-05T11:03:41.112Z,19.10
2018-02-05T11:06:10.936Z,19.63
2018-02-05T11:08:40.793Z,21.50
2018-02-05T11:11:10.495Z,21.00
2018-02-05T11:13:40.313Z,20.60
2018-02-05T11:16:10.063Z,21.03
2018-02-05T11:18:39.897Z,21.37
2018-02-05T11:21:09.669Z,20.57
2018-02-05T11:23:39.462Z,19.80
2018-02-05T11:26:09.294Z,20.30
2018-02-05T11:28:38.983Z,19.40
2018-02-05T11:31:08.760Z,20.57
2018-02-05T11:33:38.586Z,18.60
2018-02-05T11:36:08.337Z,20.87
2018-02-05T11:38:38.175Z,21.30
2018-02-05T11:41:07.959Z,21.53
2018-02-05T11:43:37.777Z,19.87
2018-02-05T11:46:07.649Z,18.43
2018-02-05T11:48:37.496Z,21.17
2018-02-05T11:51:07.258Z,18.83
2018-02-05T11:53:37.055Z,23.13
2018-02-05T11:56:06.830Z,24.57
2018-02-05T11:58:36.615Z,20.93
2018-02-05T12:01:06.439Z,21.20
2018-02-05T12:03:36.314Z,20.10
2018-02-05T12:06:06.095Z,21.93
2018-02-05T12:08:35.860Z,19.37
2018-02-05T12:11:05.685Z,14.27
2018-02-05T12:13:35.506Z,14.67
2018-02-05T12:16:05.413Z,15.87
2018-02-05T12:18:35.162Z,15.50
2018-02-05T12:21:05.015Z,14.50
2018-02-05T12:23:34.761Z,14.43
2018-02-05T12:26:04.536Z,13.97
2018-02-05T12:28:34.270Z,13.30
2018-02-05T12:31:04.106Z,13.97
2018-02-05T12:33:33.926Z,12.30
2018-02-05T12:36:06.190Z,11.80
2018-02-05T12:38:35.991Z,13.47
2018-02-05T12:41:05.786Z,12.77
2018-02-05T12:43:35.598Z,13.90
2018-02-05T12:46:05.439Z,13.47
2018-02-05T12:48:35.263Z,13.20
2018-02-05T12:51:05.073Z,13.27
2018-02-05T12:53:34.897Z,13.33
2018-02-05T12:56:04.735Z,12.87
2018-02-05T12:58:37.004Z,11.17
2018-02-05T13:01:23.685Z,11.93
2018-02-05T13:03:59.178Z,11.50
2018-02-05T13:06:32.897Z,9.20
2018-02-05T13:09:02.719Z,9.50
2018-02-05T13:11:32.518Z,7.57
2018-02-05T13:14:02.375Z,9.60
2018-02-05T13:16:32.205Z,8.50
2018-02-05T13:19:01.992Z,8.23
2018-02-05T13:21:31.868Z,9.20
2018-02-05T13:24:01.618Z,7.87
2018-02-05T13:26:31.345Z,8.23
2018-02-05T13:29:01.108Z,8.77
2018-02-05T13:31:30.901Z,12.30
2018-02-05T13:34:00.675Z,12.27
2018-02-05T13:36:30.465Z,12.77
2018-02-05T13:39:00.213Z,13.63
2018-02-05T13:41:30.062Z,14.20
2018-02-05T13:43:59.835Z,14.47
2018-02-05T13:46:29.617Z,15.90
2018-02-05T13:48:59.371Z,16.90
2018-02-05T13:51:29.081Z,16.13
2018-02-05T13:53:58.932Z,15.50
2018-02-05T13:56:28.690Z,15.50
2018-02-05T13:58:58.449Z,15.97
2018-02-05T14:01:28.299Z,15.03
2018-02-05T14:03:58.060Z,14.63
2018-02-05T14:06:27.853Z,14.10
2018-02-05T14:08:57.603Z,14.50
2018-02-05T14:11:27.312Z,14.60
2018-02-05T14:13:57.095Z,14.17
2018-02-05T14:16:26.905Z,14.07
2018-02-05T14:19:02.382Z,14.07
2018-02-05T14:21:32.107Z,14.33
2018-02-05T14:24:01.906Z,14.37
2018-02-05T14:26:31.662Z,14.63
2018-02-05T14:29:01.408Z,14.77
2018-02-05T14:31:31.186Z,14.90
2018-02-05T14:34:00.932Z,14.73
2018-02-05T14:36:30.714Z,15.23
2018-02-05T14:39:00.463Z,14.93
2018-02-05T14:41:30.216Z,15.07
2018-02-05T14:44:00.021Z,15.50
2018-02-05T14:46:29.797Z,13.77
2018-02-05T14:48:59.595Z,13.50
2018-02-05T14:51:29.459Z,13.53
2018-02-05T14:53:59.225Z,12.67
2018-02-05T14:56:29.022Z,12.43
2018-02-05T14:58:58.756Z,11.90
2018-02-05T15:01:28.525Z,12.60
2018-02-05T15:03:58.284Z,12.63
2018-02-05T15:06:28.034Z,11.90
2018-02-05T15:08:57.798Z,12.67
2018-02-05T15:11:27.507Z,12.17
2018-02-05T15:13:57.401Z,12.33
2018-02-05T15:16:27.214Z,12.90
2018-02-05T15:18:57.025Z,13.03
2018-02-05T15:21:26.777Z,12.73
2018-02-05T15:23:56.527Z,12.60
2018-02-05T15:26:26.384Z,12.63
2018-02-05T15:28:56.147Z,13.30
2018-02-05T15:31:25.873Z,13.67
2018-02-05T15:33:55.698Z,12.73
2018-02-05T15:36:25.517Z,13.53
2018-02-05T15:38:55.331Z,13.13
2018-02-05T15:41:25.076Z,14.27
2018-02-05T15:43:54.883Z,14.50
2018-02-05T15:46:24.681Z,13.57
2018-02-05T15:48:54.394Z,14.33
2018-02-05T15:51:24.104Z,14.53
2018-02-05T15:53:53.854Z,14.40
2018-02-05T15:56:23.616Z,14.90
2018-02-05T15:58:53.354Z,14.03
2018-02-05T16:01:23.088Z,15.10
2018-02-05T16:03:52.914Z,15.53
2018-02-05T16:06:22.742Z,15.60
2018-02-05T16:08:52.429Z,16.27
2018-02-05T16:11:22.152Z,16.40
2018-02-05T16:13:51.945Z,17.23
2018-02-05T16:16:21.706Z,17.90
2018-02-05T16:18:51.483Z,17.43
2018-02-05T16:21:21.321Z,17.67
2018-02-05T16:23:51.133Z,17.97
2018-02-05T16:26:20.864Z,16.43
2018-02-05T16:28:50.562Z,15.83
2018-02-05T16:31:20.387Z,16.10
2018-02-05T16:33:50.116Z,17.37
2018-02-05T16:36:19.898Z,17.97
2018-02-05T16:38:49.701Z,20.80
2018-02-05T16:41:19.504Z,20.47
2018-02-05T16:43:49.365Z,21.53
2018-02-05T16:46:19.159Z,21.77
2018-02-05T16:48:48.926Z,20.70
2018-02-05T16:51:18.627Z,20.17
2018-02-05T16:53:48.428Z,19.67
2018-02-05T16:56:18.098Z,19.97
2018-02-05T16:58:47.896Z,19.60
2018-02-05T17:01:17.671Z,20.40
2018-02-05T17:03:47.500Z,21.10
2018-02-05T17:06:17.326Z,20.40
2018-02-05T17:08:47.107Z,22.07
2018-02-05T17:11:16.845Z,22.37
2018-02-05T17:13:46.620Z,24.23
2018-02-05T17:16:16.407Z,25.63
2018-02-05T17:18:46.176Z,29.60
2018-02-05T17:21:15.998Z,31.57
2018-02-05T17:23:45.766Z,40.77
2018-02-05T17:26:15.551Z,49.97
2018-02-05T17:28:45.314Z,46.47
2018-02-05T17:31:15.071Z,46.97
2018-02-05T17:33:44.788Z,47.87
2018-02-05T17:36:14.597Z,48.80
2018-02-05T17:38:44.412Z,48.50
2018-02-05T17:41:14.280Z,48.80
2018-02-05T17:43:44.105Z,48.93
2018-02-05T17:46:13.818Z,46.30
2018-02-05T17:48:43.573Z,51.17
2018-02-05T17:51:13.328Z,47.60
2018-02-05T17:53:43.087Z,49.03
2018-02-05T17:56:12.880Z,44.97
2018-02-05T17:58:42.667Z,42.13
2018-02-05T18:01:12.490Z,43.60
2018-02-05T18:03:42.225Z,36.63
2018-02-05T18:06:12.041Z,37.07
2018-02-05T18:08:41.884Z,32.33
2018-02-05T18:11:11.658Z,32.10
2018-02-05T18:13:41.531Z,31.60
2018-02-05T18:16:11.490Z,35.60
2018-02-05T18:18:41.242Z,27.13
2018-02-05T18:21:11.083Z,26.60
2018-02-05T18:23:40.886Z,26.97
2018-02-05T18:26:10.681Z,27.43
2018-02-05T18:28:40.644Z,27.23
2018-02-05T18:31:10.368Z,28.47
2018-02-05T18:33:40.136Z,30.53
2018-02-05T18:36:09.904Z,31.27
2018-02-05T18:38:39.710Z,29.93
2018-02-05T18:41:09.518Z,29.07
2018-02-05T18:43:39.255Z,28.80
2018-02-05T18:46:09.093Z,27.10
2018-02-05T18:48:38.924Z,26.50
2018-02-05T18:51:08.687Z,23.73
2018-02-05T18:53:38.644Z,24.93
2018-02-05T18:56:08.397Z,24.90
2018-02-05T18:58:38.273Z,25.70
2018-02-05T19:01:08.068Z,26.20
2018-02-05T19:03:37.889Z,25.70
2018-02-05T19:06:07.652Z,24.10
2018-02-05T19:08:37.498Z,23.87
2018-02-05T19:11:07.188Z,22.80
2018-02-05T19:13:36.981Z,23.17
2018-02-05T19:16:06.779Z,21.50
2018-02-05T19:18:36.676Z,21.23
2018-02-05T19:21:06.450Z,20.13
2018-02-05T19:23:36.260Z,20.27
2018-02-05T19:26:06.101Z,21.20
2018-02-05T19:28:35.945Z,22.33
2018-02-05T19:31:05.694Z,23.03
2018-02-05T19:33:35.462Z,22.97
2018-02-05T19:36:05.272Z,21.17
2018-02-05T19:38:35.115Z,22.33
2018-02-05T19:41:04.987Z,22.33
2018-02-05T19:43:34.902Z,21.40
2018-02-05T19:46:04.739Z,19.90
2018-02-05T19:48:34.557Z,21.20
2018-02-05T19:51:04.306Z,20.10
2018-02-05T19:53:34.137Z,21.70
2018-02-05T19:56:03.954Z,20.77
2018-02-05T19:58:33.738Z,20.27
2018-02-05T20:01:03.560Z,21.57
2018-02-05T20:03:33.475Z,20.80
2018-02-05T20:06:03.409Z,22.00
2018-02-05T20:08:33.247Z,20.83
2018-02-05T20:11:03.027Z,20.63
2018-02-05T20:13:32.782Z,21.53
2018-02-05T20:16:02.549Z,21.30
2018-02-05T20:18:32.358Z,21.77
2018-02-05T20:21:02.207Z,22.37
2018-02-05T20:23:32.114Z,21.77
2018-02-05T20:26:01.957Z,22.80
2018-02-05T20:28:31.840Z,21.67
2018-02-05T20:31:01.581Z,23.47
2018-02-05T20:33:31.368Z,22.43
2018-02-05T20:36:01.148Z,21.40
2018-02-05T20:38:31.053Z,22.37
2018-02-05T20:41:01.066Z,21.53
2018-02-05T20:43:30.988Z,21.93
2018-02-05T20:46:00.787Z,22.20
2018-02-05T20:48:30.588Z,23.50
2018-02-05T20:51:00.421Z,23.23
2018-02-05T20:53:30.269Z,23.27
2018-02-05T20:56:00.089Z,22.50
2018-02-05T20:58:29.872Z,22.97
2018-02-05T21:00:59.594Z,21.97
2018-02-05T21:03:29.393Z,22.27
2018-02-05T21:05:59.198Z,22.30
2018-02-05T21:08:29.005Z,21.73
2018-02-05T21:10:58.732Z,21.37
2018-02-05T21:13:28.502Z,19.73
2018-02-05T21:15:58.259Z,20.77
2018-02-05T21:18:28.050Z,20.77
2018-02-05T21:20:57.792Z,19.00
2018-02-05T21:23:27.534Z,19.40
2018-02-05T21:25:57.318Z,19.23
2018-02-05T21:28:27.089Z,18.07
2018-02-05T21:30:56.822Z,17.93
2018-02-05T21:33:26.642Z,17.80
2018-02-05T21:35:56.378Z,17.73
2018-02-05T21:38:26.169Z,18.23
2018-02-05T21:40:55.937Z,18.47
2018-02-05T21:43:25.705Z,17.60
2018-02-05T21:45:55.494Z,18.90
2018-02-05T21:48:25.359Z,19.63
2018-02-05T21:50:55.075Z,19.00
2018-02-05T21:53:24.905Z,19.17
2018-02-05T21:55:54.648Z,19.30
2018-02-05T21:58:24.418Z,19.40
2018-02-05T22:00:54.139Z,19.40
2018-02-05T22:03:23.922Z,18.63
2018-02-05T22:05:53.698Z,19.83
2018-02-05T22:08:23.584Z,20.13
2018-02-05T22:10:53.389Z,19.87
2018-02-05T22:13:23.148Z,20.97
2018-02-05T22:15:52.942Z,21.57
2018-02-05T22:18:22.751Z,20.60
2018-02-05T22:20:52.536Z,20.73
2018-02-05T22:23:22.348Z,21.40
2018-02-05T22:25:52.137Z,20.90
2018-02-05T22:28:21.929Z,21.13
2018-02-05T22:30:51.673Z,21.13
2018-02-05T22:33:21.509Z,20.77
2018-02-05T22:35:51.331Z,21.20
2018-02-05T22:38:21.146Z,19.97
2018-02-05T22:40:50.917Z,19.90
2018-02-05T22:43:20.730Z,20.73
2018-02-05T22:45:50.509Z,20.77
2018-02-05T22:48:20.291Z,20.73
2018-02-05T22:50:50.011Z,21.17
2018-02-05T22:53:19.707Z,20.47
2018-02-05T22:55:49.478Z,20.90
2018-02-05T22:58:19.253Z,20.77
2018-02-05T23:00:48.961Z,20.63
2018-02-05T23:03:18.734Z,21.03
2018-02-05T23:05:48.471Z,21.97
2018-02-05T23:08:18.229Z,23.70
2018-02-05T23:10:47.997Z,24.70
2018-02-05T23:13:17.787Z,23.53
2018-02-05T23:15:47.570Z,23.97
2018-02-05T23:18:17.321Z,26.10
2018-02-05T23:20:47.083Z,26.40
2018-02-05T23:23:16.851Z,27.40
2018-02-05T23:25:46.648Z,27.33
2018-02-05T23:28:16.410Z,27.43
2018-02-05T23:30:46.113Z,29.50
2018-02-05T23:33:15.837Z,33.57
2018-02-05T23:35:45.649Z,31.93
2018-02-05T23:38:15.477Z,32.83
2018-02-05T23:40:45.280Z,31.87
2018-02-05T23:43:15.080Z,31.43
2018-02-05T23:45:44.822Z,33.10
2018-02-05T23:48:14.623Z,31.30
2018-02-05T23:50:44.322Z,31.47
2018-02-05T23:53:14.059Z,30.50
2018-02-05T23:55:43.868Z,31.20
2018-02-05T23:58:13.678Z,32.37
